createdAt,value
2022-11-19T00:01:34.536Z,3.30
2022-11-19T00:04:02.390Z,2.88
2022-11-19T00:06:31.622Z,3.47
2022-11-19T00:08:59.531Z,3.45
2022-11-19T00:11:42.120Z,3.00
2022-11-19T00:14:10.322Z,3.20
2022-11-19T00:16:38.184Z,3.00
2022-11-19T00:19:06.106Z,2.90
2022-11-19T00:21:35.361Z,3.17
2022-11-19T00:24:03.244Z,2.63
2022-11-19T00:26:31.106Z,3.10
2022-11-19T00:28:58.948Z,2.85
2022-11-19T00:31:26.833Z,3.30
2022-11-19T00:33:55.115Z,3.15
2022-11-19T00:36:23.227Z,3.10
2022-11-19T00:38:52.448Z,2.90
2022-11-19T00:41:20.292Z,3.33
2022-11-19T00:43:48.494Z,3.00
2022-11-19T00:46:16.808Z,3.00
2022-11-19T00:48:44.683Z,3.08
2022-11-19T00:51:12.925Z,2.95
2022-11-19T00:53:40.809Z,2.90
2022-11-19T00:56:10.993Z,3.17
2022-11-19T00:58:39.137Z,3.22
2022-11-19T01:01:07.381Z,2.80
2022-11-19T01:03:35.462Z,3.00
2022-11-19T01:06:03.316Z,3.10
2022-11-19T01:08:31.199Z,2.97
2022-11-19T01:11:05.326Z,2.85
2022-11-19T01:13:37.742Z,2.65
2022-11-19T01:16:07.763Z,2.40
2022-11-19T01:18:35.938Z,3.03
2022-11-19T01:21:04.063Z,2.72
2022-11-19T01:23:32.036Z,2.97
2022-11-19T01:25:59.893Z,2.92
2022-11-19T01:28:28.026Z,2.92
2022-11-19T01:30:57.275Z,2.80
2022-11-19T01:33:25.131Z,2.80
2022-11-19T01:35:57.150Z,2.72
2022-11-19T01:38:25.032Z,2.70
2022-11-19T01:40:53.150Z,2.78
2022-11-19T01:43:21.103Z,2.80
2022-11-19T01:45:49.879Z,3.03
2022-11-19T01:48:20.273Z,2.90
2022-11-19T01:50:49.707Z,2.58
2022-11-19T01:53:19.199Z,2.70
2022-11-19T01:55:47.085Z,2.92
2022-11-19T01:58:16.004Z,2.67
2022-11-19T02:00:43.854Z,2.75
2022-11-19T02:03:11.822Z,2.70
2022-11-19T02:05:41.138Z,3.00
2022-11-19T02:08:09.793Z,2.70
2022-11-19T02:10:42.481Z,2.70
2022-11-19T02:13:12.721Z,2.60
2022-11-19T02:15:42.360Z,2.75
2022-11-19T02:18:23.491Z,2.58
2022-11-19T02:21:06.486Z,2.85
2022-11-19T02:23:51.242Z,2.70
2022-11-19T02:27:01.546Z,2.50
2022-11-19T02:29:55.684Z,2.85
2022-11-19T02:32:24.251Z,2.58
2022-11-19T02:34:54.012Z,2.45
2022-11-19T02:37:25.443Z,2.70
2022-11-19T02:39:54.149Z,2.83
2022-11-19T02:42:23.641Z,2.60
2022-11-19T02:45:01.626Z,2.67
2022-11-19T02:47:30.200Z,2.70
2022-11-19T02:50:00.338Z,2.70
2022-11-19T02:52:28.187Z,2.47
2022-11-19T02:54:56.009Z,2.58
2022-11-19T02:57:23.920Z,2.60
2022-11-19T03:00:12.908Z,2.50
2022-11-19T03:02:59.813Z,2.45
2022-11-19T03:05:29.223Z,2.40
2022-11-19T03:07:57.057Z,2.72
2022-11-19T03:10:26.235Z,2.58
2022-11-19T03:12:55.385Z,2.45
2022-11-19T03:15:48.875Z,2.42
2022-11-19T03:18:18.052Z,2.72
2022-11-19T03:20:47.583Z,2.58
2022-11-19T03:23:19.109Z,2.70
2022-11-19T03:25:49.873Z,2.50
2022-11-19T03:28:19.494Z,2.60
2022-11-19T03:30:48.732Z,2.65
2022-11-19T03:33:18.239Z,2.42
2022-11-19T03:35:47.504Z,2.70
2022-11-19T03:38:17.158Z,2.70
2022-11-19T03:40:45.053Z,2.70
2022-11-19T03:43:14.164Z,2.75
2022-11-19T03:45:43.384Z,2.40
2022-11-19T03:48:12.775Z,2.60
2022-11-19T03:50:44.225Z,2.78
2022-11-19T03:53:12.120Z,2.38
2022-11-19T03:55:43.401Z,2.60
2022-11-19T03:58:11.293Z,2.53
2022-11-19T04:00:39.189Z,2.78
2022-11-19T04:03:07.044Z,2.35
2022-11-19T04:05:36.319Z,2.30
2022-11-19T04:08:04.171Z,2.50
2022-11-19T04:10:32.021Z,2.45
2022-11-19T04:12:59.927Z,2.55
2022-11-19T04:15:27.797Z,2.50
2022-11-19T04:17:55.668Z,2.63
2022-11-19T04:20:23.541Z,2.65
2022-11-19T04:22:53.428Z,2.40
2022-11-19T04:25:21.392Z,2.50
2022-11-19T04:27:51.345Z,2.60
2022-11-19T04:30:19.347Z,2.65
2022-11-19T04:32:47.428Z,2.42
2022-11-19T04:35:18.110Z,2.20
2022-11-19T04:37:46.013Z,2.60
2022-11-19T04:40:15.772Z,2.40
2022-11-19T04:42:43.709Z,2.55
2022-11-19T04:45:11.954Z,2.53
2022-11-19T04:47:39.794Z,2.58
2022-11-19T04:50:08.863Z,2.20
2022-11-19T04:52:40.785Z,2.80
2022-11-19T04:55:10.755Z,2.60
2022-11-19T04:57:40.079Z,2.58
2022-11-19T05:00:09.090Z,2.67
2022-11-19T05:02:36.928Z,2.58
2022-11-19T05:05:05.009Z,2.40
2022-11-19T05:07:32.983Z,2.40
2022-11-19T05:10:00.882Z,2.28
2022-11-19T05:12:28.697Z,2.58
2022-11-19T05:14:57.874Z,2.72
2022-11-19T05:17:25.772Z,2.65
2022-11-19T05:19:53.630Z,2.72
2022-11-19T05:22:21.478Z,2.80
2022-11-19T05:24:49.341Z,2.58
2022-11-19T05:27:17.200Z,2.40
2022-11-19T05:29:45.094Z,2.78
2022-11-19T05:32:14.331Z,2.72
2022-11-19T05:34:42.202Z,2.67
2022-11-19T05:37:10.092Z,2.80
2022-11-19T05:39:37.933Z,2.78
2022-11-19T05:42:06.034Z,2.60
2022-11-19T05:44:33.926Z,2.80
2022-11-19T05:47:01.772Z,2.63
2022-11-19T05:49:30.993Z,2.45
2022-11-19T05:51:58.868Z,2.58
2022-11-19T05:54:26.794Z,2.70
2022-11-19T05:56:54.685Z,2.80
2022-11-19T05:59:22.842Z,2.80
2022-11-19T06:01:50.872Z,2.50
2022-11-19T06:04:19.323Z,2.53
2022-11-19T06:06:48.528Z,2.80
2022-11-19T06:09:16.410Z,2.80
2022-11-19T06:11:50.984Z,2.58
2022-11-19T06:14:20.357Z,2.90
2022-11-19T06:16:48.239Z,2.80
2022-11-19T06:19:16.243Z,3.05
2022-11-19T06:21:44.310Z,2.83
2022-11-19T06:24:13.824Z,2.90
2022-11-19T06:26:41.799Z,2.97
2022-11-19T06:29:09.861Z,2.92
2022-11-19T06:31:37.714Z,3.03
2022-11-19T06:34:05.576Z,2.67
2022-11-19T06:36:40.262Z,3.00
2022-11-19T06:39:09.863Z,2.70
2022-11-19T06:41:39.095Z,3.03
2022-11-19T06:44:06.935Z,2.92
2022-11-19T06:46:34.806Z,2.72
2022-11-19T06:49:03.751Z,3.03
2022-11-19T06:51:31.649Z,2.85
2022-11-19T06:53:59.496Z,2.72
2022-11-19T06:56:27.398Z,3.20
2022-11-19T06:58:58.977Z,3.08
2022-11-19T07:01:26.962Z,2.80
2022-11-19T07:03:54.996Z,3.15
2022-11-19T07:06:22.885Z,2.92
2022-11-19T07:08:50.736Z,2.95
2022-11-19T07:11:27.328Z,3.10
2022-11-19T07:13:58.171Z,3.20
2022-11-19T07:16:29.890Z,3.10
2022-11-19T07:18:58.736Z,3.05
2022-11-19T07:21:26.660Z,3.13
2022-11-19T07:23:55.071Z,3.13
2022-11-19T07:26:23.009Z,3.28
2022-11-19T07:28:50.986Z,3.15
2022-11-19T07:31:18.942Z,2.88
2022-11-19T07:33:48.368Z,3.00
2022-11-19T07:36:18.576Z,2.95
2022-11-19T07:38:47.059Z,2.90
2022-11-19T07:41:32.342Z,3.20
2022-11-19T07:44:00.239Z,3.22
2022-11-19T07:46:28.129Z,3.30
2022-11-19T07:48:57.941Z,3.08
2022-11-19T07:51:26.195Z,3.10
2022-11-19T07:53:54.095Z,3.10
2022-11-19T07:56:22.033Z,3.10
2022-11-19T07:58:49.961Z,3.00
2022-11-19T08:01:19.151Z,3.15
2022-11-19T08:03:50.611Z,3.20
2022-11-19T08:06:22.971Z,3.25
2022-11-19T08:08:50.909Z,2.90
2022-11-19T08:11:18.958Z,3.15
2022-11-19T08:13:46.886Z,3.20
2022-11-19T08:16:36.608Z,3.00
2022-11-19T08:19:03.868Z,2.97
2022-11-19T08:21:33.086Z,2.90
2022-11-19T08:24:00.992Z,3.10
2022-11-19T08:26:28.933Z,3.08
2022-11-19T08:28:56.877Z,3.25
2022-11-19T08:31:24.714Z,3.13
2022-11-19T08:33:52.589Z,3.20
2022-11-19T08:36:20.516Z,3.20
2022-11-19T08:38:49.732Z,3.40
2022-11-19T08:41:35.140Z,3.17
2022-11-19T08:44:03.092Z,3.22
2022-11-19T08:46:31.013Z,3.10
2022-11-19T08:48:59.011Z,3.33
2022-11-19T08:51:26.872Z,3.20
2022-11-19T08:53:56.160Z,3.08
2022-11-19T08:56:24.179Z,3.20
2022-11-19T08:58:58.466Z,3.25
2022-11-19T09:01:29.194Z,3.40
2022-11-19T09:03:57.083Z,3.47
2022-11-19T09:06:24.998Z,3.10
2022-11-19T09:08:53.024Z,3.60
2022-11-19T09:11:22.567Z,3.15
2022-11-19T09:13:50.481Z,3.35
2022-11-19T09:16:18.379Z,3.25
2022-11-19T09:18:46.357Z,3.70
2022-11-19T09:21:14.289Z,3.65
2022-11-19T09:23:42.634Z,4.68
2022-11-19T09:26:12.599Z,5.13
2022-11-19T09:28:42.036Z,5.18
2022-11-19T09:31:11.137Z,5.32
2022-11-19T09:33:42.076Z,4.65
2022-11-19T09:36:10.377Z,6.93
2022-11-19T09:38:39.256Z,5.70
2022-11-19T09:41:30.797Z,8.65
2022-11-19T09:44:05.809Z,11.60
2022-11-19T09:46:37.736Z,13.18
2022-11-19T09:49:08.842Z,12.48
2022-11-19T09:51:36.760Z,13.70
2022-11-19T09:54:05.654Z,11.00
2022-11-19T09:56:35.894Z,11.35
2022-11-19T09:59:08.621Z,12.40
2022-11-19T10:01:36.525Z,12.10
2022-11-19T10:04:04.553Z,11.60
2022-11-19T10:06:36.586Z,11.95
2022-11-19T10:09:15.510Z,10.85
2022-11-19T10:11:53.391Z,10.73
2022-11-19T10:14:34.562Z,10.73
2022-11-19T10:17:05.999Z,10.05
2022-11-19T10:19:41.558Z,9.95
2022-11-19T10:22:11.102Z,10.00
2022-11-19T10:24:41.931Z,9.27
2022-11-19T10:27:16.450Z,9.40
2022-11-19T10:29:45.632Z,9.23
2022-11-19T10:32:22.946Z,9.32
2022-11-19T10:34:51.677Z,8.93
2022-11-19T10:37:20.085Z,8.23
2022-11-19T10:39:49.728Z,8.10
2022-11-19T10:42:20.134Z,8.18
2022-11-19T10:44:51.546Z,8.45
2022-11-19T10:47:20.843Z,7.70
2022-11-19T10:49:52.609Z,7.88
2022-11-19T10:52:25.736Z,7.22
2022-11-19T10:54:55.090Z,7.63
2022-11-19T10:57:22.984Z,7.40
2022-11-19T10:59:52.406Z,7.07
2022-11-19T11:02:27.935Z,7.13
2022-11-19T11:05:08.046Z,7.10
2022-11-19T11:07:50.948Z,6.30
2022-11-19T11:10:29.595Z,6.35
2022-11-19T11:13:16.647Z,6.35
2022-11-19T11:15:49.605Z,5.90
2022-11-19T11:18:17.596Z,6.45
2022-11-19T11:20:47.219Z,6.28
2022-11-19T11:23:16.112Z,6.43
2022-11-19T11:25:52.535Z,6.18
2022-11-19T11:28:21.186Z,5.60
2022-11-19T11:30:57.771Z,6.13
2022-11-19T11:33:31.015Z,5.88
2022-11-19T11:35:59.996Z,5.75
2022-11-19T11:38:28.490Z,5.90
2022-11-19T11:41:41.743Z,5.38
2022-11-19T11:44:01.505Z,5.07
2022-11-19T11:46:40.398Z,5.80
2022-11-19T11:49:12.767Z,5.25
2022-11-19T11:51:41.024Z,5.88
2022-11-19T11:54:18.355Z,5.05
2022-11-19T11:56:46.622Z,4.90
2022-11-19T11:59:16.196Z,5.05
2022-11-19T12:01:53.938Z,5.30
2022-11-19T12:04:21.918Z,5.05
2022-11-19T12:06:54.273Z,5.05
2022-11-19T12:09:25.629Z,4.78
2022-11-19T12:11:56.471Z,4.50
2022-11-19T12:14:25.730Z,4.97
2022-11-19T12:17:11.679Z,5.13
2022-11-19T12:19:46.462Z,4.97
2022-11-19T12:22:18.134Z,4.75
2022-11-19T12:24:59.942Z,4.47
2022-11-19T12:27:30.762Z,4.60
2022-11-19T12:30:02.826Z,4.80
2022-11-19T12:32:48.433Z,4.35
2022-11-19T12:35:24.273Z,3.83
2022-11-19T12:38:01.940Z,4.43
2022-11-19T12:40:40.411Z,4.40
2022-11-19T12:43:14.793Z,4.47
2022-11-19T12:45:44.978Z,4.72
2022-11-19T12:48:28.685Z,4.47
2022-11-19T12:50:57.857Z,4.55
2022-11-19T12:53:35.488Z,4.75
2022-11-19T12:56:08.497Z,4.80
2022-11-19T12:58:40.758Z,4.55
2022-11-19T13:01:10.984Z,4.63
2022-11-19T13:03:47.619Z,4.60
2022-11-19T13:06:18.048Z,4.53
2022-11-19T13:08:48.591Z,4.32
2022-11-19T13:11:17.086Z,4.70
2022-11-19T13:13:47.071Z,4.35
2022-11-19T13:16:16.261Z,4.40
2022-11-19T13:18:46.381Z,4.90
2022-11-19T13:21:17.184Z,4.80
2022-11-19T13:23:46.475Z,5.28
2022-11-19T13:26:15.345Z,4.88
2022-11-19T13:28:45.145Z,5.05
2022-11-19T13:31:14.797Z,5.60
2022-11-19T13:33:46.831Z,5.35
2022-11-19T13:36:17.482Z,5.38
2022-11-19T13:38:47.978Z,6.07
2022-11-19T13:41:17.247Z,6.53
2022-11-19T13:44:02.922Z,7.32
2022-11-19T13:46:33.690Z,6.80
2022-11-19T13:49:05.166Z,7.10
2022-11-19T13:51:34.998Z,8.02
2022-11-19T13:54:03.772Z,7.57
2022-11-19T13:56:43.334Z,7.53
2022-11-19T13:59:24.671Z,7.20
2022-11-19T14:02:18.518Z,6.85
2022-11-19T14:05:11.007Z,6.80
2022-11-19T14:07:46.353Z,7.07
2022-11-19T14:10:17.311Z,6.25
2022-11-19T14:13:08.361Z,6.80
2022-11-19T14:16:14.912Z,6.55
2022-11-19T14:19:00.721Z,6.45
2022-11-19T14:22:18.502Z,6.30
2022-11-19T14:25:16.068Z,7.03
2022-11-19T14:27:44.516Z,6.53
2022-11-19T14:30:17.068Z,6.10
2022-11-19T14:32:47.589Z,6.25
2022-11-19T14:35:36.888Z,6.10
2022-11-19T14:38:31.530Z,6.35
2022-11-19T14:41:17.995Z,5.90
2022-11-19T14:44:11.761Z,6.53
2022-11-19T14:46:44.073Z,5.10
2022-11-19T14:49:35.760Z,5.72
2022-11-19T14:52:03.844Z,6.05
2022-11-19T14:54:39.121Z,6.45
2022-11-19T14:57:13.023Z,5.40
2022-11-19T14:59:40.963Z,5.85
2022-11-19T15:02:17.386Z,5.72
2022-11-19T15:04:51.533Z,5.20
2022-11-19T15:07:27.811Z,5.63
2022-11-19T15:10:37.762Z,5.32
2022-11-19T15:13:26.840Z,5.25
2022-11-19T15:15:57.065Z,5.50
2022-11-19T15:18:37.363Z,5.20
2022-11-19T15:21:22.422Z,5.13
2022-11-19T15:23:57.491Z,5.05
2022-11-19T15:26:28.308Z,4.88
2022-11-19T15:29:05.162Z,5.15
2022-11-19T15:31:43.016Z,5.03
2022-11-19T15:34:49.340Z,5.13
2022-11-19T15:37:23.694Z,5.28
2022-11-19T15:39:52.722Z,5.38
2022-11-19T15:42:22.295Z,5.30
2022-11-19T15:44:54.273Z,5.40
2022-11-19T15:47:24.144Z,5.18
2022-11-19T15:49:52.340Z,5.45
2022-11-19T15:52:22.978Z,5.65
2022-11-19T15:54:50.893Z,5.90
2022-11-19T15:57:24.148Z,6.35
2022-11-19T15:59:57.810Z,6.35
2022-11-19T16:02:34.473Z,6.72
2022-11-19T16:05:02.342Z,6.93
2022-11-19T16:07:30.590Z,6.82
2022-11-19T16:09:58.627Z,6.75
2022-11-19T16:12:46.191Z,7.18
2022-11-19T16:15:37.770Z,6.78
2022-11-19T16:18:05.839Z,7.28
2022-11-19T16:20:33.743Z,7.90
2022-11-19T16:23:02.580Z,6.95
2022-11-19T16:25:34.224Z,7.43
2022-11-19T16:28:03.728Z,7.07
2022-11-19T16:30:39.131Z,6.80
2022-11-19T16:33:06.969Z,7.05
2022-11-19T16:35:37.184Z,7.47
2022-11-19T16:38:05.180Z,7.72
2022-11-19T16:40:53.108Z,6.75
2022-11-19T16:43:19.970Z,6.82
2022-11-19T16:45:49.194Z,7.30
2022-11-19T16:48:56.080Z,6.82
2022-11-19T16:51:42.264Z,6.80
2022-11-19T16:54:11.104Z,7.07
2022-11-19T16:56:41.471Z,7.40
2022-11-19T16:59:17.012Z,7.18
2022-11-19T17:01:55.866Z,6.50
2022-11-19T17:04:24.986Z,6.35
2022-11-19T17:06:52.952Z,6.60
2022-11-19T17:09:35.816Z,6.85
2022-11-19T17:12:19.005Z,6.75
2022-11-19T17:14:51.917Z,6.47
2022-11-19T17:17:38.398Z,6.72
2022-11-19T17:20:41.319Z,6.40
2022-11-19T17:23:14.774Z,6.82
2022-11-19T17:25:46.991Z,7.00
2022-11-19T17:28:19.598Z,6.53
2022-11-19T17:30:49.561Z,6.78
2022-11-19T17:33:19.525Z,6.68
2022-11-19T17:35:48.243Z,6.47
2022-11-19T17:38:17.232Z,6.60
2022-11-19T17:40:46.814Z,7.07
2022-11-19T17:43:32.843Z,6.68
2022-11-19T17:46:00.757Z,6.72
2022-11-19T17:48:30.238Z,7.03
2022-11-19T17:50:58.752Z,6.88
2022-11-19T17:53:26.685Z,6.70
2022-11-19T17:55:54.950Z,6.82
2022-11-19T17:58:22.855Z,7.70
2022-11-19T18:00:50.789Z,7.18
2022-11-19T18:03:18.895Z,7.10
2022-11-19T18:05:49.063Z,6.95
2022-11-19T18:08:17.083Z,7.47
2022-11-19T18:10:46.249Z,6.97
2022-11-19T18:13:15.481Z,6.75
2022-11-19T18:15:43.336Z,7.25
2022-11-19T18:18:11.199Z,7.80
2022-11-19T18:20:39.364Z,6.95
2022-11-19T18:23:08.595Z,6.85
2022-11-19T18:25:36.506Z,7.20
2022-11-19T18:28:04.704Z,6.93
2022-11-19T18:30:32.606Z,7.20
2022-11-19T18:33:00.563Z,7.35
2022-11-19T18:35:28.531Z,7.70
2022-11-19T18:37:56.420Z,7.20
2022-11-19T18:40:25.675Z,7.45
2022-11-19T18:43:11.107Z,7.22
2022-11-19T18:45:39.242Z,7.57
2022-11-19T18:48:07.089Z,7.15
2022-11-19T18:50:34.990Z,7.15
2022-11-19T18:53:02.823Z,7.50
2022-11-19T18:55:32.081Z,7.60
2022-11-19T18:58:00.046Z,7.40
2022-11-19T19:00:27.943Z,7.38
2022-11-19T19:02:55.928Z,7.60
2022-11-19T19:05:23.871Z,7.10
2022-11-19T19:07:51.782Z,7.13
2022-11-19T19:10:19.891Z,7.28
2022-11-19T19:12:48.460Z,7.30
2022-11-19T19:15:16.449Z,7.78
2022-11-19T19:17:44.302Z,7.40
2022-11-19T19:20:13.088Z,7.40
2022-11-19T19:22:40.950Z,7.00
2022-11-19T19:25:09.786Z,7.80
2022-11-19T19:27:37.686Z,7.80
2022-11-19T19:30:09.449Z,7.47
2022-11-19T19:32:37.466Z,6.95
2022-11-19T19:35:06.057Z,7.55
2022-11-19T19:37:34.019Z,7.50
2022-11-19T19:40:01.897Z,7.57
2022-11-19T19:42:29.892Z,7.32
2022-11-19T19:44:58.518Z,7.07
2022-11-19T19:47:27.866Z,7.45
2022-11-19T19:49:55.776Z,7.20
2022-11-19T19:52:23.704Z,7.30
2022-11-19T19:54:51.652Z,7.22
2022-11-19T19:57:19.634Z,7.40
2022-11-19T19:59:47.843Z,6.97
2022-11-19T20:02:15.838Z,7.32
2022-11-19T20:04:45.066Z,6.85
2022-11-19T20:07:13.201Z,7.13
2022-11-19T20:09:41.385Z,7.72
2022-11-19T20:12:09.495Z,6.88
2022-11-19T20:14:37.645Z,7.10
2022-11-19T20:17:05.819Z,7.20
2022-11-19T20:19:33.931Z,6.93
2022-11-19T20:22:03.428Z,7.50
2022-11-19T20:24:31.569Z,7.35
2022-11-19T20:26:59.678Z,7.43
2022-11-19T20:29:28.360Z,7.30
2022-11-19T20:31:56.538Z,7.18
2022-11-19T20:34:24.709Z,7.00
2022-11-19T20:36:53.789Z,7.18
2022-11-19T20:39:23.317Z,7.35
2022-11-19T20:42:17.517Z,7.40
2022-11-19T20:44:45.537Z,7.40
2022-11-19T20:47:13.562Z,7.25
2022-11-19T20:49:41.644Z,7.07
2022-11-19T20:52:10.784Z,7.07
2022-11-19T20:54:41.808Z,7.30
2022-11-19T20:57:09.785Z,7.05
2022-11-19T20:59:37.652Z,6.82
2022-11-19T21:02:05.667Z,7.32
2022-11-19T21:04:37.081Z,7.15
2022-11-19T21:07:05.525Z,6.88
2022-11-19T21:09:33.544Z,7.15
2022-11-19T21:12:02.807Z,6.68
2022-11-19T21:14:30.806Z,7.10
2022-11-19T21:16:58.760Z,7.07
2022-11-19T21:19:26.736Z,7.05
2022-11-19T21:21:54.704Z,8.00
2022-11-19T21:24:22.592Z,7.70
2022-11-19T21:26:50.474Z,6.60
2022-11-19T21:29:20.190Z,6.85
2022-11-19T21:31:48.578Z,7.00
2022-11-19T21:34:17.661Z,7.05
2022-11-19T21:36:46.042Z,6.88
2022-11-19T21:39:14.697Z,7.55
2022-11-19T21:41:42.781Z,6.80
2022-11-19T21:44:10.683Z,7.13
2022-11-19T21:46:39.913Z,7.00
2022-11-19T21:49:07.869Z,7.13
2022-11-19T21:51:35.801Z,7.00
2022-11-19T21:54:03.653Z,6.88
2022-11-19T21:56:37.111Z,7.20
2022-11-19T21:59:07.298Z,7.03
2022-11-19T22:01:35.285Z,6.85
2022-11-19T22:04:04.607Z,6.97
2022-11-19T22:06:32.586Z,7.63
2022-11-19T22:09:00.601Z,7.40
2022-11-19T22:11:32.010Z,7.70
2022-11-19T22:14:01.416Z,7.40
2022-11-19T22:16:29.537Z,7.18
2022-11-19T22:18:57.600Z,7.40
2022-11-19T22:21:26.886Z,7.38
2022-11-19T22:23:54.768Z,7.28
2022-11-19T22:26:22.692Z,7.22
2022-11-19T22:28:50.715Z,7.07
2022-11-19T22:31:18.669Z,6.63
2022-11-19T22:33:47.809Z,7.15
2022-11-19T22:36:15.691Z,7.60
2022-11-19T22:38:45.044Z,7.38
2022-11-19T22:41:13.810Z,6.75
2022-11-19T22:43:41.966Z,8.15
2022-11-19T22:46:10.482Z,7.40
2022-11-19T22:48:38.454Z,7.03
2022-11-19T22:51:06.887Z,7.07
2022-11-19T22:53:35.555Z,6.90
2022-11-19T22:56:05.220Z,6.78
2022-11-19T22:58:33.137Z,7.15
2022-11-19T23:01:01.053Z,6.68
2022-11-19T23:03:29.115Z,7.72
2022-11-19T23:05:59.129Z,7.10
2022-11-19T23:08:27.163Z,7.20
2022-11-19T23:10:59.052Z,7.13
2022-11-19T23:13:34.025Z,6.97
2022-11-19T23:16:03.415Z,6.82
2022-11-19T23:18:32.082Z,7.05
2022-11-19T23:21:01.039Z,7.13
2022-11-19T23:23:28.958Z,7.03
2022-11-19T23:25:57.512Z,7.10
2022-11-19T23:28:25.633Z,7.47
2022-11-19T23:30:54.897Z,7.53
2022-11-19T23:33:22.960Z,7.50
2022-11-19T23:35:50.896Z,7.43
2022-11-19T23:38:18.794Z,7.00
2022-11-19T23:40:47.194Z,7.70
2022-11-19T23:43:15.101Z,7.82
2022-11-19T23:45:42.973Z,7.25
2022-11-19T23:48:12.358Z,7.63
2022-11-19T23:50:40.228Z,7.63
2022-11-19T23:53:08.726Z,7.63
2022-11-19T23:55:36.583Z,7.35
2022-11-19T23:58:04.535Z,8.07
